Aeroporto :
LOGIN :

Iscrizione | Disclaimer

   EN    FR    IT 

 










Sommario :    VFR   VFR Marginale   IFR   IFR Intensivo   IFR Molto Intensivo
Visibilità : 
Base nubi : 
>= 8 km
>= 3000ft
5 / 8 km
1000 / 3000 ft
1500m / 5 km
500 / 1000 ft
800 / 1500m
200 / 500 ft
< 800m
< 200 ft
Simboli :   Temporali  Nebbia  Neve Forte  Precipitazioni Forti  Vento > 20 kt
SIGMETs :   Varie  Temporali  Ghiacco  Turbolenza  Onda orograficha  Ceneri Vulcaniche






- Altitudine del aeroporto : 1367 ft
- Codice IATA : FDH


EDNY - Friedrichshafen

ULTIMO METAR :
  • 122050Z 05004KT 360V080 9999 -RA FEW044 OVC063 04/02 Q1005

METARs OBSOLETI :
  • 122020Z 07004KT 9999 FEW044 BKN051 OVC061 04/03 Q1005
  • 121950Z 07005KT 9999 BKN057 OVC071 03/02 Q1005
  • 121920Z VRB01KT 9999 FEW061 OVC071 03/02 Q1005
  • 121850Z 06004KT CAVOK 04/02 Q1005
  • 121820Z 05004KT 9999 OVC062 03/02 Q1005

TAF TAF EDNY
Valido dal 12 a 18 ore il 13 a 18 ore UTC


121700Z 1218/1318 VRB03KT 9999 BKN025
TEMPO 1305/1307 BKN008



MetMap, La meteo Aeronautica in un colpo d'occhio ! - Copyright ORBIFLY Dicembre 2007 - Disclaimer

ORBIFLY MET'MAP TEAM :

Programmazione e sviluppo : Alexandra Zaïnal
Concezione e sviluppo : Baudouin d'Aumeries
Co-Programmazione e sviluppo : Marc-Olivier Méhu
Supporto tecnico e logistico : Manuel Goepfert
Aiuto per la traduzione : Arnaldo La Scala

Contatto : metmap@orbifly.com




FONTI E CREDITI :

   NOAA